sensor_id;sensor_type;location;lat;lon;timestamp;P1;durP1;ratioP1;P2;durP2;ratioP2
33138;SDS011;19501;50.948;5.316;2022-09-28T00:02:04;2.38;;;1.65;;
33138;SDS011;19501;50.948;5.316;2022-09-28T00:04:30;0.40;;;0.40;;
33138;SDS011;19501;50.948;5.316;2022-09-28T00:06:57;0.40;;;0.40;;
33138;SDS011;19501;50.948;5.316;2022-09-28T00:09:22;0.30;;;0.30;;
33138;SDS011;19501;50.948;5.316;2022-09-28T00:11:49;0.38;;;0.38;;
33138;SDS011;19501;50.948;5.316;2022-09-28T00:14:14;14.05;;;9.25;;
33138;SDS011;19501;50.948;5.316;2022-09-28T00:16:43;0.73;;;0.73;;
33138;SDS011;19501;50.948;5.316;2022-09-28T00:19:10;0.40;;;0.40;;
33138;SDS011;19501;50.948;5.316;2022-09-28T00:21:38;0.30;;;0.30;;
33138;SDS011;19501;50.948;5.316;2022-09-28T00:24:05;0.40;;;0.40;;
33138;SDS011;19501;50.948;5.316;2022-09-28T00:29:13;0.40;;;0.40;;
33138;SDS011;19501;50.948;5.316;2022-09-28T00:31:40;0.40;;;0.40;;
33138;SDS011;19501;50.948;5.316;2022-09-28T00:34:06;0.40;;;0.40;;
33138;SDS011;19501;50.948;5.316;2022-09-28T00:36:32;0.38;;;0.38;;
33138;SDS011;19501;50.948;5.316;2022-09-28T00:39:01;0.38;;;0.38;;
33138;SDS011;19501;50.948;5.316;2022-09-28T00:49:16;0.30;;;0.30;;
33138;SDS011;19501;50.948;5.316;2022-09-28T00:51:43;0.40;;;0.40;;
33138;SDS011;19501;50.948;5.316;2022-09-28T00:54:11;0.40;;;0.40;;
33138;SDS011;19501;50.948;5.316;2022-09-28T00:56:40;0.40;;;0.40;;
33138;SDS011;19501;50.948;5.316;2022-09-28T00:59:08;0.40;;;0.40;;
33138;SDS011;19501;50.948;5.316;2022-09-28T01:01:34;3.47;;;3.28;;
33138;SDS011;19501;50.948;5.316;2022-09-28T01:04:01;0.30;;;0.30;;
33138;SDS011;19501;50.948;5.316;2022-09-28T01:06:29;0.40;;;0.40;;
33138;SDS011;19501;50.948;5.316;2022-09-28T01:08:57;0.40;;;0.40;;
33138;SDS011;19501;50.948;5.316;2022-09-28T01:11:27;0.50;;;0.50;;
33138;SDS011;19501;50.948;5.316;2022-09-28T01:13:55;0.40;;;0.40;;
33138;SDS011;19501;50.948;5.316;2022-09-28T01:21:58;0.95;;;0.95;;
33138;SDS011;19501;50.948;5.316;2022-09-28T01:24:48;0.40;;;0.40;;
33138;SDS011;19501;50.948;5.316;2022-09-28T01:30:09;1.52;;;1.42;;
33138;SDS011;19501;50.948;5.316;2022-09-28T01:35:34;0.40;;;0.40;;
33138;SDS011;19501;50.948;5.316;2022-09-28T01:38:06;0.40;;;0.40;;
33138;SDS011;19501;50.948;5.316;2022-09-28T01:40:35;0.40;;;0.40;;
33138;SDS011;19501;50.948;5.316;2022-09-28T01:43:03;0.40;;;0.40;;
33138;SDS011;19501;50.948;5.316;2022-09-28T01:45:40;0.43;;;0.43;;
33138;SDS011;19501;50.948;5.316;2022-09-28T01:48:09;0.40;;;0.40;;
33138;SDS011;19501;50.948;5.316;2022-09-28T01:50:40;0.60;;;0.60;;
33138;SDS011;19501;50.948;5.316;2022-09-28T01:55:46;4.25;;;3.92;;
33138;SDS011;19501;50.948;5.316;2022-09-28T02:00:53;0.40;;;0.40;;
33138;SDS011;19501;50.948;5.316;2022-09-28T02:03:25;0.40;;;0.40;;
33138;SDS011;19501;50.948;5.316;2022-09-28T02:06:07;0.30;;;0.30;;
33138;SDS011;19501;50.948;5.316;2022-09-28T02:08:42;0.40;;;0.40;;
33138;SDS011;19501;50.948;5.316;2022-09-28T02:11:18;0.40;;;0.40;;
33138;SDS011;19501;50.948;5.316;2022-09-28T02:13:46;0.40;;;0.40;;
33138;SDS011;19501;50.948;5.316;2022-09-28T02:16:31;0.40;;;0.40;;
33138;SDS011;19501;50.948;5.316;2022-09-28T02:19:04;0.40;;;0.40;;
33138;SDS011;19501;50.948;5.316;2022-09-28T02:21:43;0.40;;;0.40;;
33138;SDS011;19501;50.948;5.316;2022-09-28T02:24:22;0.30;;;0.30;;
33138;SDS011;19501;50.948;5.316;2022-09-28T02:26:49;0.40;;;0.40;;
33138;SDS011;19501;50.948;5.316;2022-09-28T02:29:16;0.40;;;0.40;;
33138;SDS011;19501;50.948;5.316;2022-09-28T02:31:41;1.08;;;1.02;;
33138;SDS011;19501;50.948;5.316;2022-09-28T02:34:07;0.40;;;0.40;;
33138;SDS011;19501;50.948;5.316;2022-09-28T02:36:34;0.40;;;0.40;;
33138;SDS011;19501;50.948;5.316;2022-09-28T02:38:59;0.30;;;0.30;;
33138;SDS011;19501;50.948;5.316;2022-09-28T02:47:48;0.40;;;0.40;;
33138;SDS011;19501;50.948;5.316;2022-09-28T02:53:22;0.40;;;0.40;;
33138;SDS011;19501;50.948;5.316;2022-09-28T03:09:11;0.40;;;0.40;;
33138;SDS011;19501;50.948;5.316;2022-09-28T03:11:53;0.40;;;0.40;;
33138;SDS011;19501;50.948;5.316;2022-09-28T03:14:23;2.78;;;2.53;;
33138;SDS011;19501;50.948;5.316;2022-09-28T03:16:49;0.40;;;0.40;;
33138;SDS011;19501;50.948;5.316;2022-09-28T03:19:18;0.40;;;0.40;;
33138;SDS011;19501;50.948;5.316;2022-09-28T03:21:48;0.40;;;0.40;;
33138;SDS011;19501;50.948;5.316;2022-09-28T03:24:14;0.40;;;0.40;;
33138;SDS011;19501;50.948;5.316;2022-09-28T03:26:40;1.52;;;1.42;;
33138;SDS011;19501;50.948;5.316;2022-09-28T03:29:06;0.40;;;0.40;;
33138;SDS011;19501;50.948;5.316;2022-09-28T03:31:31;3.55;;;3.22;;
33138;SDS011;19501;50.948;5.316;2022-09-28T03:33:58;0.30;;;0.30;;
33138;SDS011;19501;50.948;5.316;2022-09-28T03:36:24;0.40;;;0.40;;
33138;SDS011;19501;50.948;5.316;2022-09-28T03:38:52;0.40;;;0.40;;
33138;SDS011;19501;50.948;5.316;2022-09-28T03:41:22;0.35;;;0.35;;
33138;SDS011;19501;50.948;5.316;2022-09-28T03:43:48;0.35;;;0.35;;
33138;SDS011;19501;50.948;5.316;2022-09-28T03:46:14;0.40;;;0.40;;
33138;SDS011;19501;50.948;5.316;2022-09-28T03:48:40;0.40;;;0.40;;
33138;SDS011;19501;50.948;5.316;2022-09-28T03:51:06;0.40;;;0.40;;
33138;SDS011;19501;50.948;5.316;2022-09-28T03:53:33;0.40;;;0.40;;
33138;SDS011;19501;50.948;5.316;2022-09-28T03:56:03;0.40;;;0.40;;
33138;SDS011;19501;50.948;5.316;2022-09-28T03:58:31;0.50;;;0.50;;
33138;SDS011;19501;50.948;5.316;2022-09-28T04:01:04;0.40;;;0.40;;
33138;SDS011;19501;50.948;5.316;2022-09-28T04:03:32;0.38;;;0.38;;
33138;SDS011;19501;50.948;5.316;2022-09-28T04:05:58;5.93;;;4.57;;
33138;SDS011;19501;50.948;5.316;2022-09-28T04:08:24;0.93;;;0.93;;
33138;SDS011;19501;50.948;5.316;2022-09-28T04:10:50;0.47;;;0.47;;
33138;SDS011;19501;50.948;5.316;2022-09-28T04:13:19;0.40;;;0.40;;
33138;SDS011;19501;50.948;5.316;2022-09-28T04:15:50;0.40;;;0.40;;
33138;SDS011;19501;50.948;5.316;2022-09-28T04:18:18;0.50;;;0.50;;
33138;SDS011;19501;50.948;5.316;2022-09-28T04:20:43;0.40;;;0.40;;
33138;SDS011;19501;50.948;5.316;2022-09-28T04:23:12;0.50;;;0.50;;
33138;SDS011;19501;50.948;5.316;2022-09-28T04:25:40;0.70;;;0.70;;
33138;SDS011;19501;50.948;5.316;2022-09-28T04:28:07;0.40;;;0.40;;
33138;SDS011;19501;50.948;5.316;2022-09-28T04:30:51;0.40;;;0.40;;
33138;SDS011;19501;50.948;5.316;2022-09-28T04:33:17;0.40;;;0.40;;
33138;SDS011;19501;50.948;5.316;2022-09-28T04:35:43;0.40;;;0.40;;
33138;SDS011;19501;50.948;5.316;2022-09-28T04:38:09;0.40;;;0.40;;
33138;SDS011;19501;50.948;5.316;2022-09-28T04:40:34;0.40;;;0.40;;
33138;SDS011;19501;50.948;5.316;2022-09-28T04:43:00;0.40;;;0.40;;
33138;SDS011;19501;50.948;5.316;2022-09-28T04:45:26;0.40;;;0.40;;
33138;SDS011;19501;50.948;5.316;2022-09-28T04:47:52;0.40;;;0.40;;
33138;SDS011;19501;50.948;5.316;2022-09-28T04:50:18;0.40;;;0.40;;
33138;SDS011;19501;50.948;5.316;2022-09-28T04:52:44;0.40;;;0.40;;
33138;SDS011;19501;50.948;5.316;2022-09-28T04:55:10;0.40;;;0.40;;
33138;SDS011;19501;50.948;5.316;2022-09-28T04:57:38;0.40;;;0.40;;
33138;SDS011;19501;50.948;5.316;2022-09-28T05:00:04;0.40;;;0.40;;
33138;SDS011;19501;50.948;5.316;2022-09-28T05:02:33;0.40;;;0.40;;
33138;SDS011;19501;50.948;5.316;2022-09-28T05:05:00;0.40;;;0.40;;
33138;SDS011;19501;50.948;5.316;2022-09-28T05:07:26;0.40;;;0.40;;
33138;SDS011;19501;50.948;5.316;2022-09-28T05:09:53;0.45;;;0.45;;
33138;SDS011;19501;50.948;5.316;2022-09-28T05:12:19;0.40;;;0.40;;
33138;SDS011;19501;50.948;5.316;2022-09-28T05:14:45;0.40;;;0.40;;
33138;SDS011;19501;50.948;5.316;2022-09-28T05:17:12;0.45;;;0.45;;
33138;SDS011;19501;50.948;5.316;2022-09-28T05:19:37;0.40;;;0.40;;
33138;SDS011;19501;50.948;5.316;2022-09-28T05:22:03;1.30;;;1.20;;
33138;SDS011;19501;50.948;5.316;2022-09-28T05:24:30;0.40;;;0.40;;
33138;SDS011;19501;50.948;5.316;2022-09-28T05:26:56;0.40;;;0.40;;
33138;SDS011;19501;50.948;5.316;2022-09-28T05:29:21;0.40;;;0.40;;
33138;SDS011;19501;50.948;5.316;2022-09-28T05:31:47;0.40;;;0.40;;
33138;SDS011;19501;50.948;5.316;2022-09-28T05:34:13;0.50;;;0.50;;
33138;SDS011;19501;50.948;5.316;2022-09-28T05:36:39;0.40;;;0.40;;
33138;SDS011;19501;50.948;5.316;2022-09-28T05:39:06;0.40;;;0.40;;
33138;SDS011;19501;50.948;5.316;2022-09-28T05:41:33;0.40;;;0.40;;
33138;SDS011;19501;50.948;5.316;2022-09-28T05:44:02;0.50;;;0.50;;
33138;SDS011;19501;50.948;5.316;2022-09-28T05:46:28;0.40;;;0.40;;
33138;SDS011;19501;50.948;5.316;2022-09-28T05:48:54;0.40;;;0.40;;
33138;SDS011;19501;50.948;5.316;2022-09-28T05:51:20;0.75;;;0.75;;
33138;SDS011;19501;50.948;5.316;2022-09-28T05:53:48;0.30;;;0.30;;
33138;SDS011;19501;50.948;5.316;2022-09-28T05:56:14;0.40;;;0.40;;
33138;SDS011;19501;50.948;5.316;2022-09-28T05:58:39;0.50;;;0.50;;
33138;SDS011;19501;50.948;5.316;2022-09-28T06:01:05;0.40;;;0.40;;
33138;SDS011;19501;50.948;5.316;2022-09-28T06:03:31;0.60;;;0.60;;
33138;SDS011;19501;50.948;5.316;2022-09-28T06:05:58;0.40;;;0.40;;
33138;SDS011;19501;50.948;5.316;2022-09-28T06:08:25;0.40;;;0.40;;
33138;SDS011;19501;50.948;5.316;2022-09-28T06:10:51;0.40;;;0.40;;
33138;SDS011;19501;50.948;5.316;2022-09-28T06:13:17;0.40;;;0.40;;
33138;SDS011;19501;50.948;5.316;2022-09-28T06:15:42;0.40;;;0.40;;
33138;SDS011;19501;50.948;5.316;2022-09-28T06:18:11;0.98;;;0.98;;
33138;SDS011;19501;50.948;5.316;2022-09-28T06:20:41;0.60;;;0.60;;
33138;SDS011;19501;50.948;5.316;2022-09-28T06:23:10;0.35;;;0.35;;
33138;SDS011;19501;50.948;5.316;2022-09-28T06:25:37;0.30;;;0.30;;
33138;SDS011;19501;50.948;5.316;2022-09-28T06:28:04;0.40;;;0.40;;
33138;SDS011;19501;50.948;5.316;2022-09-28T06:30:32;0.40;;;0.40;;
33138;SDS011;19501;50.948;5.316;2022-09-28T06:32:59;0.30;;;0.30;;
33138;SDS011;19501;50.948;5.316;2022-09-28T06:35:26;0.50;;;0.50;;
33138;SDS011;19501;50.948;5.316;2022-09-28T06:37:54;0.40;;;0.40;;
33138;SDS011;19501;50.948;5.316;2022-09-28T06:40:21;0.40;;;0.40;;
33138;SDS011;19501;50.948;5.316;2022-09-28T06:43:01;0.40;;;0.40;;
33138;SDS011;19501;50.948;5.316;2022-09-28T06:45:31;0.93;;;0.93;;
33138;SDS011;19501;50.948;5.316;2022-09-28T06:47:59;0.40;;;0.40;;
33138;SDS011;19501;50.948;5.316;2022-09-28T06:50:27;0.40;;;0.40;;
33138;SDS011;19501;50.948;5.316;2022-09-28T06:52:56;0.50;;;0.47;;
33138;SDS011;19501;50.948;5.316;2022-09-28T06:55:22;0.40;;;0.40;;
33138;SDS011;19501;50.948;5.316;2022-09-28T06:57:58;0.40;;;0.40;;
33138;SDS011;19501;50.948;5.316;2022-09-28T07:00:29;0.40;;;0.40;;
33138;SDS011;19501;50.948;5.316;2022-09-28T07:02:58;1.95;;;1.67;;
33138;SDS011;19501;50.948;5.316;2022-09-28T07:05:24;0.40;;;0.40;;
33138;SDS011;19501;50.948;5.316;2022-09-28T07:07:53;0.40;;;0.40;;
33138;SDS011;19501;50.948;5.316;2022-09-28T07:10:23;0.40;;;0.40;;
33138;SDS011;19501;50.948;5.316;2022-09-28T07:12:50;0.40;;;0.40;;
33138;SDS011;19501;50.948;5.316;2022-09-28T07:15:17;0.40;;;0.40;;
33138;SDS011;19501;50.948;5.316;2022-09-28T07:17:43;0.40;;;0.40;;
33138;SDS011;19501;50.948;5.316;2022-09-28T07:20:09;0.30;;;0.30;;
33138;SDS011;19501;50.948;5.316;2022-09-28T07:22:35;0.40;;;0.40;;
33138;SDS011;19501;50.948;5.316;2022-09-28T07:25:00;0.40;;;0.40;;
33138;SDS011;19501;50.948;5.316;2022-09-28T07:27:26;0.50;;;0.50;;
33138;SDS011;19501;50.948;5.316;2022-09-28T07:29:52;0.40;;;0.40;;
33138;SDS011;19501;50.948;5.316;2022-09-28T07:32:19;0.32;;;0.32;;
33138;SDS011;19501;50.948;5.316;2022-09-28T07:34:46;0.60;;;0.60;;
33138;SDS011;19501;50.948;5.316;2022-09-28T07:37:13;1.45;;;1.25;;
33138;SDS011;19501;50.948;5.316;2022-09-28T07:39:40;0.40;;;0.40;;
33138;SDS011;19501;50.948;5.316;2022-09-28T07:42:24;0.40;;;0.40;;
33138;SDS011;19501;50.948;5.316;2022-09-28T07:44:53;3.58;;;3.28;;
33138;SDS011;19501;50.948;5.316;2022-09-28T07:47:23;0.40;;;0.40;;
33138;SDS011;19501;50.948;5.316;2022-09-28T07:49:54;0.40;;;0.40;;
33138;SDS011;19501;50.948;5.316;2022-09-28T07:52:21;0.40;;;0.40;;
33138;SDS011;19501;50.948;5.316;2022-09-28T07:54:49;0.30;;;0.30;;
33138;SDS011;19501;50.948;5.316;2022-09-28T07:57:19;0.40;;;0.40;;
33138;SDS011;19501;50.948;5.316;2022-09-28T07:59:48;0.40;;;0.40;;
33138;SDS011;19501;50.948;5.316;2022-09-28T08:02:18;0.40;;;0.40;;
33138;SDS011;19501;50.948;5.316;2022-09-28T08:04:45;0.43;;;0.43;;
33138;SDS011;19501;50.948;5.316;2022-09-28T08:07:14;0.40;;;0.40;;
33138;SDS011;19501;50.948;5.316;2022-09-28T08:09:44;0.40;;;0.40;;
33138;SDS011;19501;50.948;5.316;2022-09-28T08:12:10;0.60;;;0.60;;
33138;SDS011;19501;50.948;5.316;2022-09-28T08:14:38;0.40;;;0.40;;
33138;SDS011;19501;50.948;5.316;2022-09-28T08:17:04;0.40;;;0.40;;
33138;SDS011;19501;50.948;5.316;2022-09-28T08:19:31;0.40;;;0.40;;
33138;SDS011;19501;50.948;5.316;2022-09-28T08:22:19;0.50;;;0.50;;
33138;SDS011;19501;50.948;5.316;2022-09-28T08:24:45;0.60;;;0.60;;
33138;SDS011;19501;50.948;5.316;2022-09-28T08:27:12;0.40;;;0.40;;
33138;SDS011;19501;50.948;5.316;2022-09-28T08:29:39;0.30;;;0.30;;
33138;SDS011;19501;50.948;5.316;2022-09-28T08:32:07;0.40;;;0.40;;
33138;SDS011;19501;50.948;5.316;2022-09-28T08:34:37;0.40;;;0.40;;
33138;SDS011;19501;50.948;5.316;2022-09-28T08:37:05;0.47;;;0.47;;
33138;SDS011;19501;50.948;5.316;2022-09-28T08:39:33;0.40;;;0.40;;
33138;SDS011;19501;50.948;5.316;2022-09-28T08:44:47;0.40;;;0.40;;
33138;SDS011;19501;50.948;5.316;2022-09-28T08:47:26;0.40;;;0.40;;
33138;SDS011;19501;50.948;5.316;2022-09-28T08:50:27;4.65;;;4.03;;
33138;SDS011;19501;50.948;5.316;2022-09-28T08:52:57;0.40;;;0.40;;
33138;SDS011;19501;50.948;5.316;2022-09-28T08:55:33;0.40;;;0.40;;
33138;SDS011;19501;50.948;5.316;2022-09-28T08:58:16;0.50;;;0.50;;
33138;SDS011;19501;50.948;5.316;2022-09-28T09:00:50;6.20;;;5.68;;
33138;SDS011;19501;50.948;5.316;2022-09-28T09:03:29;3.22;;;3.00;;
33138;SDS011;19501;50.948;5.316;2022-09-28T09:06:09;0.40;;;0.40;;
33138;SDS011;19501;50.948;5.316;2022-09-28T09:14:00;0.40;;;0.40;;
33138;SDS011;19501;50.948;5.316;2022-09-28T09:19:14;0.40;;;0.40;;
33138;SDS011;19501;50.948;5.316;2022-09-28T09:27:05;0.40;;;0.40;;
33138;SDS011;19501;50.948;5.316;2022-09-28T09:30:07;0.40;;;0.40;;
33138;SDS011;19501;50.948;5.316;2022-09-28T09:41:40;0.40;;;0.40;;
33138;SDS011;19501;50.948;5.316;2022-09-28T09:44:10;0.40;;;0.40;;
33138;SDS011;19501;50.948;5.316;2022-09-28T09:55:15;0.50;;;0.50;;
33138;SDS011;19501;50.948;5.316;2022-09-28T09:58:33;0.40;;;0.40;;
33138;SDS011;19501;50.948;5.316;2022-09-28T10:00:43;0.40;;;0.40;;
33138;SDS011;19501;50.948;5.316;2022-09-28T10:03:16;0.40;;;0.40;;
33138;SDS011;19501;50.948;5.316;2022-09-28T10:05:56;0.40;;;0.40;;
33138;SDS011;19501;50.948;5.316;2022-09-28T10:08:33;0.40;;;0.40;;
33138;SDS011;19501;50.948;5.316;2022-09-28T10:13:38;0.40;;;0.40;;
33138;SDS011;19501;50.948;5.316;2022-09-28T10:16:04;0.40;;;0.40;;
33138;SDS011;19501;50.948;5.316;2022-09-28T10:18:31;0.40;;;0.40;;
33138;SDS011;19501;50.948;5.316;2022-09-28T10:20:57;0.40;;;0.40;;
33138;SDS011;19501;50.948;5.316;2022-09-28T10:23:24;0.50;;;0.50;;
33138;SDS011;19501;50.948;5.316;2022-09-28T10:25:55;0.50;;;0.50;;
33138;SDS011;19501;50.948;5.316;2022-09-28T10:28:50;0.40;;;0.40;;
33138;SDS011;19501;50.948;5.316;2022-09-28T10:34:05;0.40;;;0.40;;
33138;SDS011;19501;50.948;5.316;2022-09-28T10:36:46;0.40;;;0.40;;
33138;SDS011;19501;50.948;5.316;2022-09-28T10:41:57;0.40;;;0.40;;
33138;SDS011;19501;50.948;5.316;2022-09-28T10:44:27;0.40;;;0.40;;
33138;SDS011;19501;50.948;5.316;2022-09-28T10:47:03;0.40;;;0.40;;
33138;SDS011;19501;50.948;5.316;2022-09-28T10:49:39;0.40;;;0.40;;
33138;SDS011;19501;50.948;5.316;2022-09-28T10:54:58;0.40;;;0.40;;
33138;SDS011;19501;50.948;5.316;2022-09-28T10:57:29;1.42;;;1.25;;
33138;SDS011;19501;50.948;5.316;2022-09-28T10:59:59;1.33;;;1.08;;
33138;SDS011;19501;50.948;5.316;2022-09-28T11:04:55;0.40;;;0.40;;
33138;SDS011;19501;50.948;5.316;2022-09-28T11:07:27;0.40;;;0.40;;
33138;SDS011;19501;50.948;5.316;2022-09-28T11:09:56;0.32;;;0.32;;
33138;SDS011;19501;50.948;5.316;2022-09-28T11:12:26;0.40;;;0.40;;
33138;SDS011;19501;50.948;5.316;2022-09-28T11:15:04;0.45;;;0.45;;
33138;SDS011;19501;50.948;5.316;2022-09-28T11:17:38;0.40;;;0.40;;
33138;SDS011;19501;50.948;5.316;2022-09-28T11:22:55;7.35;;;2.00;;
33138;SDS011;19501;50.948;5.316;2022-09-28T11:25:39;5.78;;;2.03;;
33138;SDS011;19501;50.948;5.316;2022-09-28T11:28:12;9.60;;;2.45;;
33138;SDS011;19501;50.948;5.316;2022-09-28T11:30:49;8.07;;;2.13;;
33138;SDS011;19501;50.948;5.316;2022-09-28T11:33:18;7.85;;;2.40;;
33138;SDS011;19501;50.948;5.316;2022-09-28T11:42:04;12.80;;;2.90;;
33138;SDS011;19501;50.948;5.316;2022-09-28T11:44:39;8.85;;;2.80;;
33138;SDS011;19501;50.948;5.316;2022-09-28T11:50:12;11.90;;;3.00;;
33138;SDS011;19501;50.948;5.316;2022-09-28T11:52:54;7.10;;;2.60;;
33138;SDS011;19501;50.948;5.316;2022-09-28T11:55:49;7.80;;;2.67;;
33138;SDS011;19501;50.948;5.316;2022-09-28T11:59:03;8.70;;;3.10;;
33138;SDS011;19501;50.948;5.316;2022-09-28T12:01:17;4.53;;;2.73;;
33138;SDS011;19501;50.948;5.316;2022-09-28T12:04:05;13.45;;;2.65;;
33138;SDS011;19501;50.948;5.316;2022-09-28T12:06:57;4.78;;;2.20;;
33138;SDS011;19501;50.948;5.316;2022-09-28T12:09:45;8.82;;;2.58;;
33138;SDS011;19501;50.948;5.316;2022-09-28T12:12:22;9.65;;;2.72;;
33138;SDS011;19501;50.948;5.316;2022-09-28T12:14:50;9.18;;;2.53;;
33138;SDS011;19501;50.948;5.316;2022-09-28T12:17:28;5.00;;;2.55;;
33138;SDS011;19501;50.948;5.316;2022-09-28T12:20:28;9.20;;;2.45;;
33138;SDS011;19501;50.948;5.316;2022-09-28T12:23:16;5.68;;;2.13;;
33138;SDS011;19501;50.948;5.316;2022-09-28T12:25:49;7.95;;;2.60;;
33138;SDS011;19501;50.948;5.316;2022-09-28T12:28:55;6.47;;;2.65;;
33138;SDS011;19501;50.948;5.316;2022-09-28T12:31:25;3.70;;;2.28;;
33138;SDS011;19501;50.948;5.316;2022-09-28T12:33:59;5.50;;;2.33;;
33138;SDS011;19501;50.948;5.316;2022-09-28T12:36:29;4.07;;;1.85;;
33138;SDS011;19501;50.948;5.316;2022-09-28T12:53:23;5.05;;;2.65;;
33138;SDS011;19501;50.948;5.316;2022-09-28T13:07:33;7.95;;;1.85;;
33138;SDS011;19501;50.948;5.316;2022-09-28T13:10:29;5.72;;;2.78;;
33138;SDS011;19501;50.948;5.316;2022-09-28T13:18:50;6.15;;;2.33;;
33138;SDS011;19501;50.948;5.316;2022-09-28T13:21:53;7.97;;;2.30;;
33138;SDS011;19501;50.948;5.316;2022-09-28T13:24:22;3.90;;;2.20;;
33138;SDS011;19501;50.948;5.316;2022-09-28T13:26:52;7.40;;;2.47;;
33138;SDS011;19501;50.948;5.316;2022-09-28T13:29:21;6.40;;;2.53;;
33138;SDS011;19501;50.948;5.316;2022-09-28T13:31:49;7.55;;;2.58;;
33138;SDS011;19501;50.948;5.316;2022-09-28T13:34:18;8.02;;;2.40;;
33138;SDS011;19501;50.948;5.316;2022-09-28T13:37:06;5.25;;;2.50;;
33138;SDS011;19501;50.948;5.316;2022-09-28T13:42:23;6.55;;;2.47;;
33138;SDS011;19501;50.948;5.316;2022-09-28T13:58:01;6.90;;;2.53;;
33138;SDS011;19501;50.948;5.316;2022-09-28T14:08:37;8.20;;;2.85;;
33138;SDS011;19501;50.948;5.316;2022-09-28T14:14:18;8.98;;;2.78;;
33138;SDS011;19501;50.948;5.316;2022-09-28T14:16:50;5.18;;;2.90;;
33138;SDS011;19501;50.948;5.316;2022-09-28T14:19:27;5.05;;;3.10;;
33138;SDS011;19501;50.948;5.316;2022-09-28T14:24:35;10.65;;;5.22;;
33138;SDS011;19501;50.948;5.316;2022-09-28T14:30:05;6.68;;;3.13;;
33138;SDS011;19501;50.948;5.316;2022-09-28T14:32:56;6.72;;;3.10;;
33138;SDS011;19501;50.948;5.316;2022-09-28T14:38:05;8.15;;;3.42;;
33138;SDS011;19501;50.948;5.316;2022-09-28T14:41:05;7.32;;;3.47;;
33138;SDS011;19501;50.948;5.316;2022-09-28T14:54:03;9.02;;;3.53;;
33138;SDS011;19501;50.948;5.316;2022-09-28T14:56:43;7.80;;;3.20;;
33138;SDS011;19501;50.948;5.316;2022-09-28T14:59:19;10.43;;;3.63;;
33138;SDS011;19501;50.948;5.316;2022-09-28T15:05:01;12.13;;;4.40;;
33138;SDS011;19501;50.948;5.316;2022-09-28T15:07:26;13.52;;;6.40;;
33138;SDS011;19501;50.948;5.316;2022-09-28T15:10:13;8.75;;;4.70;;
33138;SDS011;19501;50.948;5.316;2022-09-28T15:12:59;11.68;;;4.15;;
33138;SDS011;19501;50.948;5.316;2022-09-28T15:15:30;10.55;;;4.63;;
33138;SDS011;19501;50.948;5.316;2022-09-28T15:18:01;10.88;;;4.10;;
33138;SDS011;19501;50.948;5.316;2022-09-28T15:20:38;9.75;;;4.40;;
33138;SDS011;19501;50.948;5.316;2022-09-28T15:23:21;11.70;;;5.00;;
33138;SDS011;19501;50.948;5.316;2022-09-28T15:25:53;8.73;;;3.70;;
33138;SDS011;19501;50.948;5.316;2022-09-28T15:28:20;13.25;;;5.53;;
33138;SDS011;19501;50.948;5.316;2022-09-28T15:30:48;10.00;;;4.70;;
33138;SDS011;19501;50.948;5.316;2022-09-28T15:33:22;7.70;;;3.45;;
33138;SDS011;19501;50.948;5.316;2022-09-28T15:36:29;6.85;;;3.20;;
33138;SDS011;19501;50.948;5.316;2022-09-28T15:39:03;8.10;;;3.35;;
33138;SDS011;19501;50.948;5.316;2022-09-28T15:41:35;7.90;;;3.08;;
33138;SDS011;19501;50.948;5.316;2022-09-28T15:46:33;6.10;;;2.70;;
33138;SDS011;19501;50.948;5.316;2022-09-28T15:49:01;7.43;;;2.70;;
33138;SDS011;19501;50.948;5.316;2022-09-28T15:51:28;6.00;;;2.80;;
33138;SDS011;19501;50.948;5.316;2022-09-28T15:54:16;10.27;;;3.13;;
33138;SDS011;19501;50.948;5.316;2022-09-28T15:56:55;8.40;;;3.13;;
33138;SDS011;19501;50.948;5.316;2022-09-28T15:59:35;17.98;;;3.42;;
33138;SDS011;19501;50.948;5.316;2022-09-28T16:02:10;6.03;;;2.75;;
33138;SDS011;19501;50.948;5.316;2022-09-28T16:04:53;10.35;;;3.22;;
33138;SDS011;19501;50.948;5.316;2022-09-28T16:07:30;9.15;;;3.13;;
33138;SDS011;19501;50.948;5.316;2022-09-28T16:15:19;8.02;;;3.40;;
33138;SDS011;19501;50.948;5.316;2022-09-28T16:17:55;10.20;;;3.90;;
33138;SDS011;19501;50.948;5.316;2022-09-28T16:20:34;9.70;;;3.80;;
33138;SDS011;19501;50.948;5.316;2022-09-28T16:23:18;10.82;;;3.70;;
33138;SDS011;19501;50.948;5.316;2022-09-28T16:26:00;10.32;;;4.20;;
33138;SDS011;19501;50.948;5.316;2022-09-28T16:31:00;11.90;;;3.70;;
33138;SDS011;19501;50.948;5.316;2022-09-28T16:36:17;9.27;;;3.60;;
33138;SDS011;19501;50.948;5.316;2022-09-28T16:38:44;8.70;;;3.80;;
33138;SDS011;19501;50.948;5.316;2022-09-28T16:41:12;8.65;;;4.13;;
33138;SDS011;19501;50.948;5.316;2022-09-28T16:43:39;7.15;;;3.85;;
33138;SDS011;19501;50.948;5.316;2022-09-28T16:46:06;9.02;;;4.07;;
33138;SDS011;19501;50.948;5.316;2022-09-28T16:48:36;13.05;;;4.60;;
33138;SDS011;19501;50.948;5.316;2022-09-28T16:51:05;10.15;;;5.03;;
33138;SDS011;19501;50.948;5.316;2022-09-28T16:53:32;11.00;;;5.15;;
33138;SDS011;19501;50.948;5.316;2022-09-28T16:56:16;10.48;;;4.03;;
33138;SDS011;19501;50.948;5.316;2022-09-28T16:58:42;10.10;;;4.13;;
33138;SDS011;19501;50.948;5.316;2022-09-28T17:01:13;11.82;;;4.85;;
33138;SDS011;19501;50.948;5.316;2022-09-28T17:03:39;10.10;;;4.70;;
33138;SDS011;19501;50.948;5.316;2022-09-28T17:06:10;10.57;;;4.73;;
33138;SDS011;19501;50.948;5.316;2022-09-28T17:08:38;11.45;;;4.70;;
33138;SDS011;19501;50.948;5.316;2022-09-28T17:11:04;14.57;;;5.97;;
33138;SDS011;19501;50.948;5.316;2022-09-28T17:13:30;16.50;;;6.07;;
33138;SDS011;19501;50.948;5.316;2022-09-28T17:16:04;13.18;;;5.43;;
33138;SDS011;19501;50.948;5.316;2022-09-28T17:18:37;12.00;;;4.88;;
33138;SDS011;19501;50.948;5.316;2022-09-28T17:21:04;12.45;;;5.00;;
33138;SDS011;19501;50.948;5.316;2022-09-28T17:23:33;16.83;;;5.68;;
33138;SDS011;19501;50.948;5.316;2022-09-28T17:25:59;10.90;;;5.47;;
33138;SDS011;19501;50.948;5.316;2022-09-28T17:28:29;15.13;;;5.00;;
33138;SDS011;19501;50.948;5.316;2022-09-28T17:30:57;11.75;;;4.75;;
33138;SDS011;19501;50.948;5.316;2022-09-28T17:33:23;12.60;;;4.97;;
33138;SDS011;19501;50.948;5.316;2022-09-28T17:35:50;11.38;;;5.20;;
33138;SDS011;19501;50.948;5.316;2022-09-28T17:38:21;13.20;;;5.50;;
33138;SDS011;19501;50.948;5.316;2022-09-28T17:40:47;12.43;;;4.82;;
33138;SDS011;19501;50.948;5.316;2022-09-28T17:43:12;15.10;;;5.68;;
33138;SDS011;19501;50.948;5.316;2022-09-28T17:45:39;13.30;;;5.43;;
33138;SDS011;19501;50.948;5.316;2022-09-28T17:48:11;19.92;;;8.40;;
33138;SDS011;19501;50.948;5.316;2022-09-28T17:50:41;16.92;;;7.15;;
33138;SDS011;19501;50.948;5.316;2022-09-28T17:53:08;14.70;;;5.75;;
33138;SDS011;19501;50.948;5.316;2022-09-28T17:55:34;10.05;;;5.13;;
33138;SDS011;19501;50.948;5.316;2022-09-28T17:58:18;14.07;;;5.80;;
33138;SDS011;19501;50.948;5.316;2022-09-28T18:00:48;13.70;;;5.85;;
33138;SDS011;19501;50.948;5.316;2022-09-28T18:03:22;12.57;;;5.80;;
33138;SDS011;19501;50.948;5.316;2022-09-28T18:05:49;14.63;;;6.50;;
33138;SDS011;19501;50.948;5.316;2022-09-28T18:08:22;13.30;;;6.03;;
33138;SDS011;19501;50.948;5.316;2022-09-28T18:10:48;14.15;;;6.40;;
33138;SDS011;19501;50.948;5.316;2022-09-28T18:13:15;17.30;;;6.05;;
33138;SDS011;19501;50.948;5.316;2022-09-28T18:15:40;16.27;;;5.93;;
33138;SDS011;19501;50.948;5.316;2022-09-28T18:18:07;13.40;;;5.82;;
33138;SDS011;19501;50.948;5.316;2022-09-28T18:20:34;11.43;;;5.30;;
33138;SDS011;19501;50.948;5.316;2022-09-28T18:23:00;17.13;;;5.97;;
33138;SDS011;19501;50.948;5.316;2022-09-28T18:25:26;14.32;;;6.70;;
33138;SDS011;19501;50.948;5.316;2022-09-28T18:27:53;14.43;;;6.30;;
33138;SDS011;19501;50.948;5.316;2022-09-28T18:30:21;11.82;;;5.57;;
33138;SDS011;19501;50.948;5.316;2022-09-28T18:32:50;15.93;;;6.05;;